Terminal Aerodrome Forecast
Issued by NWS Cleveland, OH

Home | Current Version | Previous Version | Graphics & Text | Print | Product List | Glossary On
Versions: 1 2 3 4 5 6 7 8 9 10 11 12 13 14 15 16 17 18 19 20 21 22 23 24 25 26 27 28
000
FTUS41 KCLE 131400 AAA
TAFCLE
TAF AMD
KCLE 131457Z 1315/1418 30010KT P6SM SCT018 BKN025 OVC035
      TEMPO 1315/1317 BKN018
     FM131700 30010G20KT P6SM BKN025 OVC035
     FM131900 33010G20KT P6SM BKN035
     FM140100 01006KT P6SM OVC035
     FM141200 00000KT P6SM SKC=

USA.gov is the U.S. government's official web portal to all federal, state and local government web resources and services.